<?xml version="1.0" encoding="utf-8"?>
<gpx xmlns:xsi="http://www.w3.org/2001/XMLSchema-instance" xmlns:xsd="http://www.w3.org/2001/XMLSchema" version="1.1" creator="Shapelink.com" xmlns="http://www.topografix.com/GPX/1/1" xmlns:gpxtpx="http://www.garmin.com/xmlschemas/TrackPointExtension/v1">
  <metadata>
    <name>Simning 1.09 km, 2018-05-29</name>
    <desc></desc>
    <author><name>Stefan Östlund</name></author> 
    <time>2018-05-29T18:07:29Z</time>
  </metadata>
  <trk>
    <name>Simning 1.09 km, 2018-05-29</name>
    <trkseg>
      <trkpt lat="59.976702297619" lon="15.786450678716">
        <ele>0</ele>
        <time>2018-05-29T18:11:10Z</time>
      </trkpt>
      <trkpt lat="59.97684135334" lon="15.786443218825">
        <ele>0</ele>
        <time>2018-05-29T18:11:22Z</time>
      </trkpt>
      <trkpt lat="59.977253575182" lon="15.786145996651">
        <ele>0</ele>
        <time>2018-05-29T18:12:12Z</time>
      </trkpt>
      <trkpt lat="59.97760829719" lon="15.786080282555">
        <ele>0</ele>
        <time>2018-05-29T18:13:06Z</time>
      </trkpt>
      <trkpt lat="59.978152450138" lon="15.786021776893">
        <ele>0</ele>
        <time>2018-05-29T18:14:10Z</time>
      </trkpt>
      <trkpt lat="59.978315981007" lon="15.785963103593">
        <ele>0</ele>
        <time>2018-05-29T18:17:19Z</time>
      </trkpt>
      <trkpt lat="59.976957358836" lon="15.785824718424">
        <ele>0</ele>
        <time>2018-05-29T18:19:22Z</time>
      </trkpt>
      <trkpt lat="59.977909123581" lon="15.785064144818">
        <ele>0</ele>
        <time>2018-05-29T18:20:00Z</time>
      </trkpt>
      <trkpt lat="59.977835279042" lon="15.784531977987">
        <ele>0</ele>
        <time>2018-05-29T18:21:00Z</time>
      </trkpt>
      <trkpt lat="59.977568147889" lon="15.783649615374">
        <ele>0</ele>
        <time>2018-05-29T18:22:05Z</time>
      </trkpt>
      <trkpt lat="59.977046626071" lon="15.782864482801">
        <ele>0</ele>
        <time>2018-05-29T18:23:46Z</time>
      </trkpt>
      <trkpt lat="59.976851160163" lon="15.782147159799">
        <ele>0</ele>
        <time>2018-05-29T18:24:52Z</time>
      </trkpt>
      <trkpt lat="59.976948222565" lon="15.781410474608">
        <ele>0</ele>
        <time>2018-05-29T18:28:42Z</time>
      </trkpt>
      <trkpt lat="59.976213884306" lon="15.782620150416">
        <ele>0</ele>
        <time>2018-05-29T18:30:56Z</time>
      </trkpt>
      <trkpt lat="59.976012299611" lon="15.783091045558">
        <ele>0</ele>
        <time>2018-05-29T18:32:36Z</time>
      </trkpt>
      <trkpt lat="59.97578523394" lon="15.783746258681">
        <ele>0</ele>
        <time>2018-05-29T18:33:37Z</time>
      </trkpt>
      <trkpt lat="59.975897383762" lon="15.7846515877">
        <ele>0</ele>
        <time>2018-05-29T18:38:09Z</time>
      </trkpt>
      <trkpt lat="59.975994949078" lon="15.7856741795">
        <ele>0</ele>
        <time>2018-05-29T18:39:03Z</time>
      </trkpt>
      <trkpt lat="59.976054963482" lon="15.786452606553">
        <ele>0</ele>
        <time>2018-05-29T18:42:23Z</time>
      </trkpt>
      <trkpt lat="59.975971479758" lon="15.786615885965">
        <ele>0</ele>
        <time>2018-05-29T18:47:09Z</time>
      </trkpt>
    </trkseg>
  </trk>
</gpx>